createdAt,value
2022-08-01T00:02:52.966Z,35.32
2022-08-01T00:09:24.740Z,35.31
2022-08-01T00:15:58.176Z,35.29
2022-08-01T00:22:27.546Z,35.28
2022-08-01T00:28:55.012Z,35.29
2022-08-01T00:35:20.834Z,35.32
2022-08-01T00:41:59.572Z,35.3
2022-08-01T00:48:27.169Z,35.27
2022-08-01T00:54:57.068Z,35.28
2022-08-01T01:01:23.693Z,35.26
2022-08-01T01:08:11.016Z,35.37
2022-08-01T01:15:11.981Z,35.28
2022-08-01T01:21:57.932Z,35.28
2022-08-01T01:28:45.998Z,35.35
2022-08-01T01:35:43.590Z,35.26
2022-08-01T01:42:32.950Z,35.26
2022-08-01T01:49:09.509Z,34.89
2022-08-01T01:55:53.414Z,35.16
2022-08-01T02:02:40.539Z,35.2
2022-08-01T02:09:18.188Z,35.2
2022-08-01T02:16:00.904Z,35.25
2022-08-01T02:22:54.005Z,35.27
2022-08-01T02:29:51.073Z,35.22
2022-08-01T02:36:39.635Z,35.2
2022-08-01T02:43:16.976Z,35.24
2022-08-01T02:50:08.086Z,35.22
2022-08-01T02:56:55.130Z,35.27
2022-08-01T03:03:31.409Z,35.2
2022-08-01T03:10:05.132Z,35.24
2022-08-01T03:16:45.052Z,35.23
2022-08-01T03:23:37.651Z,35.18
2022-08-01T03:30:23.024Z,35.2
2022-08-01T03:36:59.029Z,35.2
2022-08-01T03:43:59.199Z,35.18
2022-08-01T03:50:52.468Z,35.2
2022-08-01T03:57:36.468Z,35.18
2022-08-01T04:04:08.489Z,35.23
2022-08-01T04:10:39.401Z,35.22
2022-08-01T04:17:03.134Z,35.23
2022-08-01T04:23:27.079Z,35.18
2022-08-01T04:30:08.109Z,35.25
2022-08-01T04:37:03.170Z,35.24
2022-08-01T04:43:44.701Z,35.25
2022-08-01T04:50:18.165Z,35.27
2022-08-01T04:56:51.935Z,34.99
2022-08-01T05:03:38.933Z,35.16
2022-08-01T05:10:01.136Z,35.21
2022-08-01T05:16:49.562Z,35.22
2022-08-01T05:23:28.493Z,35.27
2022-08-01T05:29:56.202Z,35.27
2022-08-01T05:36:25.545Z,35.13
2022-08-01T05:42:56.376Z,34.82
2022-08-01T05:49:23.612Z,35.12
2022-08-01T05:55:50.143Z,35.2
2022-08-01T06:02:14.265Z,35.24
2022-08-01T06:08:41.721Z,35.25
2022-08-01T06:15:11.100Z,35.26
2022-08-01T06:21:33.571Z,35.28
2022-08-01T06:28:02.042Z,35.3
2022-08-01T06:34:23.096Z,35.3
2022-08-01T06:40:52.464Z,35.31
2022-08-01T06:47:37.029Z,35.34
2022-08-01T06:54:10.228Z,35.33
2022-08-01T07:00:39.316Z,35.33
2022-08-01T07:07:09.275Z,35.28
2022-08-01T07:13:43.617Z,35.3
2022-08-01T07:20:16.147Z,35.32
2022-08-01T07:26:54.689Z,35.31
2022-08-01T07:33:21.049Z,35.35
2022-08-01T07:39:49.127Z,35.34
2022-08-01T07:46:17.624Z,35.26
2022-08-01T07:52:44.194Z,35.3
2022-08-01T07:59:10.282Z,35.26
2022-08-01T08:05:51.406Z,35.14
2022-08-01T08:12:31.755Z,35.13
2022-08-01T08:18:59.755Z,35.24
2022-08-01T08:25:23.548Z,35.23
2022-08-01T08:31:58.274Z,35.19
2022-08-01T08:38:31.608Z,35.21
2022-08-01T08:45:03.443Z,35.1
2022-08-01T08:51:42.126Z,35.09
2022-08-01T08:58:15.677Z,35.06
2022-08-01T09:04:48.373Z,34.99
2022-08-01T09:11:22.713Z,35.01
2022-08-01T09:18:05.256Z,34.85
2022-08-01T09:24:53.204Z,34.69
2022-08-01T09:32:05.950Z,34.8
2022-08-01T09:38:55.559Z,34.77
2022-08-01T09:45:55.594Z,34.79
2022-08-01T09:52:51.862Z,34.71
2022-08-01T09:59:58.100Z,34.75
2022-08-01T10:06:51.072Z,34.67
2022-08-01T10:13:37.132Z,34.6
2022-08-01T10:20:12.893Z,34.55
2022-08-01T10:26:57.350Z,34.68
2022-08-01T10:33:50.172Z,34.65
2022-08-01T10:40:36.435Z,34.6
2022-08-01T10:47:11.338Z,34.63
2022-08-01T10:53:56.117Z,34.59
2022-08-01T11:01:01.887Z,34.65
2022-08-01T11:07:57.289Z,34.64
2022-08-01T11:14:55.426Z,34.58
2022-08-01T11:21:56.459Z,34.56
2022-08-01T11:28:59.385Z,34.64
2022-08-01T11:35:41.786Z,34.62
2022-08-01T11:42:28.364Z,34.57
2022-08-01T11:49:08.766Z,34.61
2022-08-01T11:55:51.971Z,34.6
2022-08-01T12:02:31.143Z,34.57
2022-08-01T12:09:13.739Z,34.54
2022-08-01T12:15:56.619Z,34.57
2022-08-01T12:22:43.617Z,34.52
2022-08-01T12:29:23.568Z,34.5
2022-08-01T12:36:19.435Z,34.54
2022-08-01T12:42:59.410Z,34.52
2022-08-01T12:49:28.447Z,34.58
2022-08-01T12:56:08.755Z,34.56
2022-08-01T13:02:49.771Z,34.51
2022-08-01T13:09:40.198Z,34.36
2022-08-01T13:16:56.182Z,34.61
2022-08-01T13:24:02.267Z,34.83
2022-08-01T13:30:55.355Z,34.86
2022-08-01T13:37:46.674Z,34.83
2022-08-01T13:44:15.472Z,34.86
2022-08-01T13:51:13.465Z,34.92
2022-08-01T13:57:36.536Z,34.89
2022-08-01T14:04:01.798Z,34.95
2022-08-01T14:10:31.928Z,34.88
2022-08-01T14:16:56.340Z,34.92
2022-08-01T14:23:23.145Z,34.88
2022-08-01T14:29:54.565Z,34.86
2022-08-01T14:36:44.357Z,34.79
2022-08-01T14:43:25.201Z,34.78
2022-08-01T14:50:01.883Z,34.77
2022-08-01T14:56:34.436Z,34.74
2022-08-01T15:02:58.689Z,34.74
2022-08-01T15:09:28.066Z,34.69
2022-08-01T15:15:53.835Z,34.7
2022-08-01T15:22:27.469Z,34.7
2022-08-01T15:28:56.487Z,34.74
2022-08-01T15:35:21.853Z,34.7
2022-08-01T15:41:47.395Z,34.76
2022-08-01T15:48:21.868Z,34.66
2022-08-01T15:54:52.366Z,34.77
2022-08-01T16:01:21.580Z,34.83
2022-08-01T16:07:56.907Z,34.77
2022-08-01T16:14:26.454Z,34.71
2022-08-01T16:20:53.015Z,34.72
2022-08-01T16:27:27.556Z,34.64
2022-08-01T16:34:02.837Z,34.63
2022-08-01T16:40:29.890Z,34.69
2022-08-01T16:47:10.319Z,34.64
2022-08-01T16:53:33.916Z,34.51
2022-08-01T16:59:57.564Z,34.64
2022-08-01T17:06:23.590Z,34.64
2022-08-01T17:12:48.796Z,34.78
2022-08-01T17:19:26.878Z,34.72
2022-08-01T17:26:03.351Z,34.66
2022-08-01T17:32:34.478Z,34.68
2022-08-01T17:38:58.511Z,34.56
2022-08-01T17:45:27.767Z,35.09
2022-08-01T17:51:57.466Z,35.28
2022-08-01T17:58:33.203Z,35.34
2022-08-01T18:05:11.272Z,35.54
2022-08-01T18:11:45.113Z,35.73
2022-08-01T18:18:32.931Z,36.01
2022-08-01T18:25:09.562Z,35.81
2022-08-01T18:31:38.499Z,35.7
2022-08-01T18:38:02.521Z,35.53
2022-08-01T18:44:29.964Z,35.44
2022-08-01T18:50:54.226Z,35.43
2022-08-01T18:57:22.654Z,35.43
2022-08-01T19:03:46.547Z,35.43
2022-08-01T19:10:14.473Z,35.44
2022-08-01T19:16:48.549Z,35.4
2022-08-01T19:23:21.494Z,35.37
2022-08-01T19:30:02.704Z,35.4
2022-08-01T19:36:35.819Z,35.38
2022-08-01T19:43:04.200Z,35.36
2022-08-01T19:49:38.042Z,35.26
2022-08-01T19:56:19.861Z,35.29
2022-08-01T20:02:54.582Z,35.35
2022-08-01T20:09:27.213Z,35.34
2022-08-01T20:16:00.964Z,35.36
2022-08-01T20:22:34.942Z,35.01
2022-08-01T20:29:14.011Z,35.02
2022-08-01T20:35:55.583Z,34.83
2022-08-01T20:42:46.014Z,34.61
2022-08-01T20:49:19.427Z,34.73
2022-08-01T20:55:42.030Z,34.9
2022-08-01T21:02:51.141Z,34.84
2022-08-01T21:09:40.206Z,34.92
2022-08-01T21:16:46.051Z,34.96
2022-08-01T21:23:38.760Z,34.94
2022-08-01T21:30:26.651Z,34.91
2022-08-01T21:37:02.820Z,34.83
2022-08-01T21:43:41.086Z,34.67
2022-08-01T21:50:13.583Z,34.9
2022-08-01T21:57:06.063Z,34.79
2022-08-01T22:04:10.778Z,34.64
2022-08-01T22:10:54.704Z,34.89
2022-08-01T22:17:26.891Z,34.82
2022-08-01T22:23:52.676Z,34.95
2022-08-01T22:30:33.566Z,34.79
2022-08-01T22:37:13.549Z,34.87
2022-08-01T22:44:11.782Z,34.99
2022-08-01T22:51:24.890Z,35.1
2022-08-01T22:58:31.581Z,35.1
2022-08-01T23:05:20.056Z,35.14
2022-08-01T23:12:04.225Z,35.26
2022-08-01T23:18:49.114Z,35.22
2022-08-01T23:25:27.853Z,35.23
2022-08-01T23:32:08.876Z,35.31
2022-08-01T23:38:37.150Z,35.23
2022-08-01T23:45:10.110Z,35.35
2022-08-01T23:51:38.667Z,35.36
2022-08-01T23:58:00.226Z,35.44
